sensor_id;sensor_type;location;lat;lon;timestamp;pressure;altitude;pressure_sealevel;temperature;humidity
8573;BME280;4324;42.012;24.872;2022-08-01T00:02:17;98532.06;;;26.47;38.93
8573;BME280;4324;42.012;24.872;2022-08-01T00:04:44;98524.44;;;26.44;39.48
8573;BME280;4324;42.012;24.872;2022-08-01T00:07:11;98525.56;;;26.48;40.10
8573;BME280;4324;42.012;24.872;2022-08-01T00:09:38;98519.59;;;26.41;38.92
8573;BME280;4324;42.012;24.872;2022-08-01T00:12:07;98519.59;;;26.41;39.59
8573;BME280;4324;42.012;24.872;2022-08-01T00:14:34;98521.22;;;26.42;40.29
8573;BME280;4324;42.012;24.872;2022-08-01T00:17:01;98522.84;;;26.48;39.00
8573;BME280;4324;42.012;24.872;2022-08-01T00:19:28;98529.88;;;26.44;39.70
8573;BME280;4324;42.012;24.872;2022-08-01T00:21:55;98513.13;;;26.37;40.05
8573;BME280;4324;42.012;24.872;2022-08-01T00:24:23;98510.16;;;26.33;40.60
8573;BME280;4324;42.012;24.872;2022-08-01T00:26:50;98516.09;;;26.35;40.54
8573;BME280;4324;42.012;24.872;2022-08-01T00:29:18;98502.06;;;26.23;40.76
8573;BME280;4324;42.012;24.872;2022-08-01T00:31:45;98519.94;;;26.29;40.96
8573;BME280;4324;42.012;24.872;2022-08-01T00:34:11;98520.22;;;26.27;41.35
8573;BME280;4324;42.012;24.872;2022-08-01T00:36:39;98516.69;;;26.27;41.31
8573;BME280;4324;42.012;24.872;2022-08-01T00:39:06;98524.53;;;26.28;38.94
8573;BME280;4324;42.012;24.872;2022-08-01T00:41:33;98511.81;;;26.24;39.92
8573;BME280;4324;42.012;24.872;2022-08-01T00:44:03;98508.56;;;26.27;37.28
8573;BME280;4324;42.012;24.872;2022-08-01T00:46:32;98504.78;;;26.18;36.93
8573;BME280;4324;42.012;24.872;2022-08-01T00:49:00;98518.63;;;26.21;37.54
8573;BME280;4324;42.012;24.872;2022-08-01T00:51:28;98522.72;;;26.19;38.83
8573;BME280;4324;42.012;24.872;2022-08-01T00:53:55;98515.19;;;26.11;39.42
8573;BME280;4324;42.012;24.872;2022-08-01T00:56:24;98522.22;;;26.06;39.50
8573;BME280;4324;42.012;24.872;2022-08-01T00:58:52;98531.19;;;26.02;39.36
8573;BME280;4324;42.012;24.872;2022-08-01T01:01:19;98523.34;;;25.95;39.97
8573;BME280;4324;42.012;24.872;2022-08-01T01:03:49;98529.91;;;25.89;39.40
8573;BME280;4324;42.012;24.872;2022-08-01T01:06:26;98521.25;;;25.82;37.16
8573;BME280;4324;42.012;24.872;2022-08-01T01:09:02;98518.00;;;25.80;36.58
8573;BME280;4324;42.012;24.872;2022-08-01T01:11:38;98526.66;;;25.77;34.32
8573;BME280;4324;42.012;24.872;2022-08-01T01:14:15;98528.28;;;25.73;33.95
8573;BME280;4324;42.012;24.872;2022-08-01T01:16:43;98519.63;;;25.66;33.59
8573;BME280;4324;42.012;24.872;2022-08-01T01:19:16;98524.00;;;25.62;33.03
8573;BME280;4324;42.012;24.872;2022-08-01T01:22:00;98534.31;;;25.59;33.04
8573;BME280;4324;42.012;24.872;2022-08-01T01:24:37;98532.44;;;25.50;32.72
8573;BME280;4324;42.012;24.872;2022-08-01T01:27:12;98530.28;;;25.47;33.80
8573;BME280;4324;42.012;24.872;2022-08-01T01:29:49;98511.06;;;25.33;31.69
8573;BME280;4324;42.012;24.872;2022-08-01T01:32:21;98533.03;;;25.37;33.28
8573;BME280;4324;42.012;24.872;2022-08-01T01:34:50;98525.16;;;25.35;34.08
8573;BME280;4324;42.012;24.872;2022-08-01T01:37:23;98523.00;;;25.27;34.93
8573;BME280;4324;42.012;24.872;2022-08-01T01:39:52;98525.44;;;25.28;36.71
8573;BME280;4324;42.012;24.872;2022-08-01T01:42:20;98531.69;;;25.29;37.32
8573;BME280;4324;42.012;24.872;2022-08-01T01:44:50;98526.78;;;25.31;33.99
8573;BME280;4324;42.012;24.872;2022-08-01T01:47:18;98530.31;;;25.26;35.12
8573;BME280;4324;42.012;24.872;2022-08-01T01:49:46;98530.59;;;25.30;35.80
8573;BME280;4324;42.012;24.872;2022-08-01T01:52:16;98532.50;;;25.29;36.30
8573;BME280;4324;42.012;24.872;2022-08-01T01:54:46;98525.16;;;25.25;35.74
8573;BME280;4324;42.012;24.872;2022-08-01T01:57:15;98527.09;;;25.19;36.60
8573;BME280;4324;42.012;24.872;2022-08-01T01:59:44;98526.28;;;25.19;36.69
8573;BME280;4324;42.012;24.872;2022-08-01T02:02:15;98533.84;;;25.17;35.97
8573;BME280;4324;42.012;24.872;2022-08-01T02:04:45;98518.13;;;25.03;34.83
8573;BME280;4324;42.012;24.872;2022-08-01T02:07:16;98540.09;;;25.12;35.39
8573;BME280;4324;42.012;24.872;2022-08-01T02:09:45;98535.75;;;25.11;35.27
8573;BME280;4324;42.012;24.872;2022-08-01T02:12:15;98540.88;;;25.07;35.42
8573;BME280;4324;42.012;24.872;2022-08-01T02:14:44;98537.38;;;25.12;32.78
8573;BME280;4324;42.012;24.872;2022-08-01T02:17:16;98540.59;;;25.09;32.27
8573;BME280;4324;42.012;24.872;2022-08-01T02:19:44;98532.47;;;25.04;33.58
8573;BME280;4324;42.012;24.872;2022-08-01T02:22:15;98540.34;;;25.00;33.50
8573;BME280;4324;42.012;24.872;2022-08-01T02:24:48;98527.31;;;24.87;33.52
8573;BME280;4324;42.012;24.872;2022-08-01T02:27:22;98530.31;;;24.91;34.33
8573;BME280;4324;42.012;24.872;2022-08-01T02:29:55;98523.00;;;24.91;31.53
8573;BME280;4324;42.012;24.872;2022-08-01T02:32:31;98528.69;;;24.90;33.39
8573;BME280;4324;42.012;24.872;2022-08-01T02:35:00;98523.53;;;24.88;33.20
8573;BME280;4324;42.012;24.872;2022-08-01T02:37:30;98520.56;;;24.84;35.37
8573;BME280;4324;42.012;24.872;2022-08-01T02:39:59;98520.31;;;24.81;36.66
8573;BME280;4324;42.012;24.872;2022-08-01T02:42:28;98513.78;;;24.77;37.08
8573;BME280;4324;42.012;24.872;2022-08-01T02:44:57;98522.19;;;24.80;37.39
8573;BME280;4324;42.012;24.872;2022-08-01T02:47:27;98527.34;;;24.82;37.55
8573;BME280;4324;42.012;24.872;2022-08-01T02:49:55;98508.38;;;24.72;38.27
8573;BME280;4324;42.012;24.872;2022-08-01T02:52:24;98525.72;;;24.81;38.78
8573;BME280;4324;42.012;24.872;2022-08-01T02:54:55;98529.50;;;24.80;37.88
8573;BME280;4324;42.012;24.872;2022-08-01T02:57:23;98520.84;;;24.78;37.73
8573;BME280;4324;42.012;24.872;2022-08-01T02:59:52;98517.84;;;24.74;37.05
8573;BME280;4324;42.012;24.872;2022-08-01T03:02:22;98512.69;;;24.73;37.86
8573;BME280;4324;42.012;24.872;2022-08-01T03:04:52;98509.47;;;24.71;36.61
8573;BME280;4324;42.012;24.872;2022-08-01T03:07:20;98512.69;;;24.73;37.29
8573;BME280;4324;42.012;24.872;2022-08-01T03:09:50;98509.47;;;24.71;35.42
8573;BME280;4324;42.012;24.872;2022-08-01T03:12:20;98513.78;;;24.72;34.91
8573;BME280;4324;42.012;24.872;2022-08-01T03:14:49;98511.09;;;24.67;35.31
8573;BME280;4324;42.012;24.872;2022-08-01T03:17:18;98521.38;;;24.75;35.94
8573;BME280;4324;42.012;24.872;2022-08-01T03:19:48;98518.38;;;24.76;35.56
8573;BME280;4324;42.012;24.872;2022-08-01T03:22:18;98514.88;;;24.71;35.03
8573;BME280;4324;42.012;24.872;2022-08-01T03:24:49;98518.13;;;24.73;35.32
8573;BME280;4324;42.012;24.872;2022-08-01T03:27:18;98497.53;;;24.56;35.45
8573;BME280;4324;42.012;24.872;2022-08-01T03:29:47;98508.38;;;24.67;36.53
8573;BME280;4324;42.012;24.872;2022-08-01T03:32:16;98528.69;;;24.79;35.16
8573;BME280;4324;42.012;24.872;2022-08-01T03:34:44;98524.59;;;24.77;35.76
8573;BME280;4324;42.012;24.872;2022-08-01T03:37:14;98522.72;;;24.82;35.59
8573;BME280;4324;42.012;24.872;2022-08-01T03:39:50;98511.91;;;24.82;35.29
8573;BME280;4324;42.012;24.872;2022-08-01T03:42:21;98517.59;;;24.86;35.56
8573;BME280;4324;42.012;24.872;2022-08-01T03:44:53;98520.81;;;24.88;34.91
8573;BME280;4324;42.012;24.872;2022-08-01T03:47:24;98512.16;;;24.86;35.75
8573;BME280;4324;42.012;24.872;2022-08-01T03:49:54;98526.50;;;24.92;34.83
8573;BME280;4324;42.012;24.872;2022-08-01T03:52:22;98511.63;;;24.94;35.21
8573;BME280;4324;42.012;24.872;2022-08-01T03:54:54;98496.44;;;24.88;34.28
8573;BME280;4324;42.012;24.872;2022-08-01T03:57:23;98519.75;;;24.99;34.99
8573;BME280;4324;42.012;24.872;2022-08-01T03:59:51;98519.47;;;25.01;34.71
8573;BME280;4324;42.012;24.872;2022-08-01T04:02:19;98506.75;;;24.96;32.34
8573;BME280;4324;42.012;24.872;2022-08-01T04:04:47;98509.44;;;25.06;30.98
8573;BME280;4324;42.012;24.872;2022-08-01T04:07:22;98510.53;;;25.05;32.65
8573;BME280;4324;42.012;24.872;2022-08-01T04:09:49;98512.97;;;25.07;nan
8573;BME280;4324;42.012;24.872;2022-08-01T04:12:18;98506.72;;;25.06;33.25
8573;BME280;4324;42.012;24.872;2022-08-01T04:14:45;98504.56;;;25.08;32.13
8573;BME280;4324;42.012;24.872;2022-08-01T04:17:13;98512.16;;;25.17;31.81
8573;BME280;4324;42.012;24.872;2022-08-01T04:19:40;98491.03;;;25.14;32.92
8573;BME280;4324;42.012;24.872;2022-08-01T04:22:08;98494.81;;;25.18;32.27
8573;BME280;4324;42.012;24.872;2022-08-01T04:24:36;98512.69;;;25.34;32.23
8573;BME280;4324;42.012;24.872;2022-08-01T04:27:07;98490.50;;;25.27;31.33
8573;BME280;4324;42.012;24.872;2022-08-01T04:29:37;98516.19;;;25.45;32.04
8573;BME280;4324;42.012;24.872;2022-08-01T04:32:06;98511.56;;;25.50;30.25
8573;BME280;4324;42.012;24.872;2022-08-01T04:34:38;98499.66;;;25.51;30.34
8573;BME280;4324;42.012;24.872;2022-08-01T04:37:09;98510.72;;;25.60;31.50
8573;BME280;4324;42.012;24.872;2022-08-01T04:39:37;98505.56;;;25.58;30.65
8573;BME280;4324;42.012;24.872;2022-08-01T04:42:06;98472.28;;;25.43;31.32
8573;BME280;4324;42.012;24.872;2022-08-01T04:44:33;98475.00;;;25.48;31.82
8573;BME280;4324;42.012;24.872;2022-08-01T04:47:03;98518.00;;;25.80;31.67
8573;BME280;4324;42.012;24.872;2022-08-01T04:49:33;98509.88;;;25.80;31.19
8573;BME280;4324;42.012;24.872;2022-08-01T04:52:01;98520.97;;;25.89;31.40
8573;BME280;4324;42.012;24.872;2022-08-01T04:54:29;98492.53;;;25.81;30.24
8573;BME280;4324;42.012;24.872;2022-08-01T04:56:58;98510.38;;;25.92;30.00
8573;BME280;4324;42.012;24.872;2022-08-01T04:59:26;98501.91;;;25.99;29.10
8573;BME280;4324;42.012;24.872;2022-08-01T05:02:17;98508.66;;;26.06;29.96
8573;BME280;4324;42.012;24.872;2022-08-01T05:04:45;98513.78;;;26.13;30.33
8573;BME280;4324;42.012;24.872;2022-08-01T05:07:12;98505.38;;;26.15;30.32
8573;BME280;4324;42.012;24.872;2022-08-01T05:09:41;98507.03;;;26.11;30.76
8573;BME280;4324;42.012;24.872;2022-08-01T05:12:09;98501.03;;;26.14;29.14
8573;BME280;4324;42.012;24.872;2022-08-01T05:14:36;98505.56;;;26.28;28.47
8573;BME280;4324;42.012;24.872;2022-08-01T05:17:04;98507.44;;;26.33;29.45
8573;BME280;4324;42.012;24.872;2022-08-01T05:19:34;98478.16;;;26.25;29.23
8573;BME280;4324;42.012;24.872;2022-08-01T05:22:02;98499.50;;;26.42;28.51
8573;BME280;4324;42.012;24.872;2022-08-01T05:24:30;98504.91;;;26.47;28.19
8573;BME280;4324;42.012;24.872;2022-08-01T05:26:57;98508.13;;;26.54;27.91
8573;BME280;4324;42.012;24.872;2022-08-01T05:29:25;98503.50;;;26.54;28.85
8573;BME280;4324;42.012;24.872;2022-08-01T05:31:52;98512.72;;;26.59;29.26
8573;BME280;4324;42.012;24.872;2022-08-01T05:34:20;98511.63;;;26.60;30.32
8573;BME280;4324;42.012;24.872;2022-08-01T05:36:48;98508.94;;;26.54;30.91
8573;BME280;4324;42.012;24.872;2022-08-01T05:39:15;98526.88;;;26.56;31.23
8573;BME280;4324;42.012;24.872;2022-08-01T05:41:42;98513.06;;;26.47;31.26
8573;BME280;4324;42.012;24.872;2022-08-01T05:44:09;98519.31;;;26.42;31.97
8573;BME280;4324;42.012;24.872;2022-08-01T05:46:36;98516.09;;;26.35;32.77
8573;BME280;4324;42.012;24.872;2022-08-01T05:49:05;98522.31;;;26.46;32.62
8573;BME280;4324;42.012;24.872;2022-08-01T05:51:32;98519.56;;;26.51;32.29
8573;BME280;4324;42.012;24.872;2022-08-01T05:54:00;98502.47;;;26.50;32.14
8573;BME280;4324;42.012;24.872;2022-08-01T05:56:28;98513.81;;;26.58;31.32
8573;BME280;4324;42.012;24.872;2022-08-01T05:58:55;98511.91;;;26.58;29.93
8573;BME280;4324;42.012;24.872;2022-08-01T06:01:22;98528.94;;;26.69;30.49
8573;BME280;4324;42.012;24.872;2022-08-01T06:03:49;98516.50;;;26.63;30.57
8573;BME280;4324;42.012;24.872;2022-08-01T06:06:16;98505.66;;;26.63;30.66
8573;BME280;4324;42.012;24.872;2022-08-01T06:08:42;98525.09;;;26.75;30.84
8573;BME280;4324;42.012;24.872;2022-08-01T06:11:11;98515.47;;;26.88;30.44
8573;BME280;4324;42.012;24.872;2022-08-01T06:13:38;98521.06;;;27.01;29.94
8573;BME280;4324;42.012;24.872;2022-08-01T06:16:05;98506.34;;;27.08;29.69
8573;BME280;4324;42.012;24.872;2022-08-01T06:18:32;98512.88;;;27.12;29.98
8573;BME280;4324;42.012;24.872;2022-08-01T06:20:59;98506.88;;;27.10;30.11
8573;BME280;4324;42.012;24.872;2022-08-01T06:23:26;98511.69;;;27.18;29.48
8573;BME280;4324;42.012;24.872;2022-08-01T06:25:53;98505.22;;;27.14;29.59
8573;BME280;4324;42.012;24.872;2022-08-01T06:28:21;98510.56;;;27.24;29.60
8573;BME280;4324;42.012;24.872;2022-08-01T06:30:48;98504.78;;;27.31;29.41
8573;BME280;4324;42.012;24.872;2022-08-01T06:33:15;98514.31;;;27.28;29.29
8573;BME280;4324;42.012;24.872;2022-08-01T06:35:42;98505.84;;;27.35;28.81
8573;BME280;4324;42.012;24.872;2022-08-01T06:38:09;98494.09;;;27.39;29.07
8573;BME280;4324;42.012;24.872;2022-08-01T06:40:38;98513.94;;;27.40;29.46
8573;BME280;4324;42.012;24.872;2022-08-01T06:43:05;98499.25;;;27.41;29.70
8573;BME280;4324;42.012;24.872;2022-08-01T06:45:34;98503.28;;;27.43;29.41
8573;BME280;4324;42.012;24.872;2022-08-01T06:48:02;98510.38;;;27.44;29.33
8573;BME280;4324;42.012;24.872;2022-08-01T06:50:29;98513.03;;;27.49;29.50
8573;BME280;4324;42.012;24.872;2022-08-01T06:52:56;98509.16;;;27.56;29.19
8573;BME280;4324;42.012;24.872;2022-08-01T06:55:23;98505.41;;;27.52;29.20
8573;BME280;4324;42.012;24.872;2022-08-01T06:57:51;98495.25;;;27.57;29.25
8573;BME280;4324;42.012;24.872;2022-08-01T07:00:20;98510.25;;;27.55;29.25
8573;BME280;4324;42.012;24.872;2022-08-01T07:02:49;98499.97;;;27.52;29.51
8573;BME280;4324;42.012;24.872;2022-08-01T07:05:16;98502.94;;;27.50;29.90
8573;BME280;4324;42.012;24.872;2022-08-01T07:07:43;98511.28;;;27.59;29.40
8573;BME280;4324;42.012;24.872;2022-08-01T07:10:10;98474.72;;;27.46;29.44
8573;BME280;4324;42.012;24.872;2022-08-01T07:12:38;98491.63;;;27.67;29.66
8573;BME280;4324;42.012;24.872;2022-08-01T07:15:07;98487.47;;;27.74;29.34
8573;BME280;4324;42.012;24.872;2022-08-01T07:17:36;98497.47;;;27.79;29.33
8573;BME280;4324;42.012;24.872;2022-08-01T07:20:08;98495.78;;;27.83;29.31
8573;BME280;4324;42.012;24.872;2022-08-01T07:22:36;98489.66;;;27.96;29.03
8573;BME280;4324;42.012;24.872;2022-08-01T07:25:04;98487.44;;;27.98;29.43
8573;BME280;4324;42.012;24.872;2022-08-01T07:27:31;98494.91;;;27.88;29.06
8573;BME280;4324;42.012;24.872;2022-08-01T07:29:58;98497.59;;;27.93;29.39
8573;BME280;4324;42.012;24.872;2022-08-01T07:32:25;98486.41;;;27.94;29.48
8573;BME280;4324;42.012;24.872;2022-08-01T07:34:52;98489.28;;;28.03;29.46
8573;BME280;4324;42.012;24.872;2022-08-01T07:37:20;98500.47;;;28.02;29.58
8573;BME280;4324;42.012;24.872;2022-08-01T07:39:49;98494.28;;;27.96;29.36
8573;BME280;4324;42.012;24.872;2022-08-01T07:42:15;98474.03;;;27.83;29.45
8573;BME280;4324;42.012;24.872;2022-08-01T07:44:42;98494.63;;;27.89;29.55
8573;BME280;4324;42.012;24.872;2022-08-01T07:47:09;98471.19;;;27.93;29.56
8573;BME280;4324;42.012;24.872;2022-08-01T07:49:36;98487.66;;;28.02;29.66
8573;BME280;4324;42.012;24.872;2022-08-01T07:52:04;98485.09;;;28.11;29.71
8573;BME280;4324;42.012;24.872;2022-08-01T07:54:33;98441.97;;;27.99;29.64
8573;BME280;4324;42.012;24.872;2022-08-01T07:57:01;98479.13;;;28.28;29.51
8573;BME280;4324;42.012;24.872;2022-08-01T07:59:27;98486.88;;;28.20;29.58
8573;BME280;4324;42.012;24.872;2022-08-01T08:01:57;98485.03;;;28.16;29.86
8573;BME280;4324;42.012;24.872;2022-08-01T08:04:24;98468.91;;;28.19;30.16
8573;BME280;4324;42.012;24.872;2022-08-01T08:06:51;98460.97;;;28.23;30.07
8573;BME280;4324;42.012;24.872;2022-08-01T08:09:19;98477.22;;;28.28;30.12
8573;BME280;4324;42.012;24.872;2022-08-01T08:11:47;98471.56;;;28.25;30.24
8573;BME280;4324;42.012;24.872;2022-08-01T08:14:14;98466.56;;;28.32;30.01
8573;BME280;4324;42.012;24.872;2022-08-01T08:16:42;98458.16;;;28.28;30.07
8573;BME280;4324;42.012;24.872;2022-08-01T08:19:09;98470.88;;;28.33;29.63
8573;BME280;4324;42.012;24.872;2022-08-01T08:21:36;98454.31;;;28.29;30.03
8573;BME280;4324;42.012;24.872;2022-08-01T08:24:03;98431.53;;;28.25;29.84
8573;BME280;4324;42.012;24.872;2022-08-01T08:26:52;98451.69;;;28.43;29.92
8573;BME280;4324;42.012;24.872;2022-08-01T08:29:20;98452.25;;;28.59;29.91
8573;BME280;4324;42.012;24.872;2022-08-01T08:31:47;98455.94;;;28.68;29.70
8573;BME280;4324;42.012;24.872;2022-08-01T08:34:14;98438.56;;;28.64;29.90
8573;BME280;4324;42.012;24.872;2022-08-01T08:36:41;98441.00;;;28.65;29.55
8573;BME280;4324;42.012;24.872;2022-08-01T08:39:09;98448.09;;;28.80;29.56
8573;BME280;4324;42.012;24.872;2022-08-01T08:41:36;98391.94;;;28.52;29.51
8573;BME280;4324;42.012;24.872;2022-08-01T08:44:06;98438.41;;;28.88;29.24
8573;BME280;4324;42.012;24.872;2022-08-01T08:46:33;98435.38;;;29.08;28.77
8573;BME280;4324;42.012;24.872;2022-08-01T08:49:06;98446.88;;;29.05;27.85
8573;BME280;4324;42.012;24.872;2022-08-01T08:51:35;98462.53;;;29.13;27.72
8573;BME280;4324;42.012;24.872;2022-08-01T08:54:05;98437.50;;;29.11;28.18
8573;BME280;4324;42.012;24.872;2022-08-01T08:56:34;98459.72;;;29.18;28.31
8573;BME280;4324;42.012;24.872;2022-08-01T08:59:02;98441.75;;;29.31;27.79
8573;BME280;4324;42.012;24.872;2022-08-01T09:01:31;98446.59;;;29.34;28.36
8573;BME280;4324;42.012;24.872;2022-08-01T09:04:01;98435.47;;;29.31;27.90
8573;BME280;4324;42.012;24.872;2022-08-01T09:06:27;98447.91;;;29.23;28.05
8573;BME280;4324;42.012;24.872;2022-08-01T09:08:55;98423.78;;;29.30;26.91
8573;BME280;4324;42.012;24.872;2022-08-01T09:11:23;98434.09;;;29.33;26.37
8573;BME280;4324;42.012;24.872;2022-08-01T09:14:08;98412.75;;;29.35;27.03
8573;BME280;4324;42.012;24.872;2022-08-01T09:16:39;98415.28;;;29.46;27.58
8573;BME280;4324;42.012;24.872;2022-08-01T09:19:08;98427.81;;;29.47;26.52
8573;BME280;4324;42.012;24.872;2022-08-01T09:21:36;98428.00;;;29.50;24.97
8573;BME280;4324;42.012;24.872;2022-08-01T09:24:04;98409.63;;;29.42;26.20
8573;BME280;4324;42.012;24.872;2022-08-01T09:26:34;98389.00;;;29.50;26.65
8573;BME280;4324;42.012;24.872;2022-08-01T09:29:05;98411.06;;;29.67;27.20
8573;BME280;4324;42.012;24.872;2022-08-01T09:31:41;98410.25;;;29.67;27.85
8573;BME280;4324;42.012;24.872;2022-08-01T09:34:09;98384.84;;;29.66;26.87
8573;BME280;4324;42.012;24.872;2022-08-01T09:36:50;98331.56;;;29.32;27.73
8573;BME280;4324;42.012;24.872;2022-08-01T09:39:23;98398.56;;;29.88;27.69
8573;BME280;4324;42.012;24.872;2022-08-01T09:41:51;98386.59;;;29.98;26.23
8573;BME280;4324;42.012;24.872;2022-08-01T09:44:18;98377.41;;;29.94;25.14
8573;BME280;4324;42.012;24.872;2022-08-01T09:46:52;98410.25;;;30.03;26.15
8573;BME280;4324;42.012;24.872;2022-08-01T09:49:30;98398.41;;;30.07;25.65
8573;BME280;4324;42.012;24.872;2022-08-01T09:51:58;98344.56;;;29.63;24.58
8573;BME280;4324;42.012;24.872;2022-08-01T09:54:30;98378.41;;;29.98;25.11
8573;BME280;4324;42.012;24.872;2022-08-01T09:57:09;98402.84;;;30.03;25.52
8573;BME280;4324;42.012;24.872;2022-08-01T09:59:37;98392.38;;;29.97;26.54
8573;BME280;4324;42.012;24.872;2022-08-01T10:02:09;98393.91;;;29.89;26.71
8573;BME280;4324;42.012;24.872;2022-08-01T10:04:46;98373.00;;;29.84;26.32
8573;BME280;4324;42.012;24.872;2022-08-01T10:07:13;98385.00;;;29.97;27.07
8573;BME280;4324;42.012;24.872;2022-08-01T10:09:44;98397.00;;;29.96;27.58
8573;BME280;4324;42.012;24.872;2022-08-01T10:12:13;98373.75;;;29.99;28.07
8573;BME280;4324;42.012;24.872;2022-08-01T10:14:41;98385.47;;;29.99;28.68
8573;BME280;4324;42.012;24.872;2022-08-01T10:17:12;98386.28;;;30.00;28.47
8573;BME280;4324;42.012;24.872;2022-08-01T10:19:41;98385.81;;;29.98;28.76
8573;BME280;4324;42.012;24.872;2022-08-01T10:22:10;98383.84;;;30.12;28.66
8573;BME280;4324;42.012;24.872;2022-08-01T10:24:39;98364.91;;;30.16;28.40
8573;BME280;4324;42.012;24.872;2022-08-01T10:27:08;98354.88;;;30.25;27.98
8573;BME280;4324;42.012;24.872;2022-08-01T10:29:40;98371.69;;;30.41;27.48
8573;BME280;4324;42.012;24.872;2022-08-01T10:32:10;98406.69;;;30.38;27.58
8573;BME280;4324;42.012;24.872;2022-08-01T10:34:39;98353.59;;;30.22;27.65
8573;BME280;4324;42.012;24.872;2022-08-01T10:37:07;98330.84;;;30.13;25.73
8573;BME280;4324;42.012;24.872;2022-08-01T10:39:34;98388.69;;;30.60;26.29
8573;BME280;4324;42.012;24.872;2022-08-01T10:42:02;98372.13;;;30.56;26.71
8573;BME280;4324;42.012;24.872;2022-08-01T10:44:30;98388.56;;;30.65;27.07
8573;BME280;4324;42.012;24.872;2022-08-01T10:47:02;98385.19;;;30.68;26.56
8573;BME280;4324;42.012;24.872;2022-08-01T10:49:34;98372.00;;;30.70;26.43
8573;BME280;4324;42.012;24.872;2022-08-01T10:52:04;98374.13;;;30.73;26.14
8573;BME280;4324;42.012;24.872;2022-08-01T10:54:38;98371.59;;;30.77;24.85
8573;BME280;4324;42.012;24.872;2022-08-01T10:57:06;98386.00;;;30.69;25.64
8573;BME280;4324;42.012;24.872;2022-08-01T10:59:33;98388.41;;;30.70;25.61
8573;BME280;4324;42.012;24.872;2022-08-01T11:02:05;98359.91;;;30.62;26.29
8573;BME280;4324;42.012;24.872;2022-08-01T11:04:42;98365.25;;;30.68;27.00
8573;BME280;4324;42.012;24.872;2022-08-01T11:07:15;98371.13;;;30.75;25.60
8573;BME280;4324;42.012;24.872;2022-08-01T11:09:44;98369.59;;;30.69;26.27
8573;BME280;4324;42.012;24.872;2022-08-01T11:12:13;98398.81;;;30.82;25.66
8573;BME280;4324;42.012;24.872;2022-08-01T11:17:55;98358.66;;;30.69;26.58
8573;BME280;4324;42.012;24.872;2022-08-01T11:20:25;98376.00;;;30.87;26.47
8573;BME280;4324;42.012;24.872;2022-08-01T11:23:23;98364.72;;;30.88;26.62
8573;BME280;4324;42.012;24.872;2022-08-01T11:26:11;98346.72;;;30.87;26.28
8573;BME280;4324;42.012;24.872;2022-08-01T11:28:38;98351.94;;;31.06;24.33
8573;BME280;4324;42.012;24.872;2022-08-01T11:31:26;98367.28;;;31.16;23.76
8573;BME280;4324;42.012;24.872;2022-08-01T11:33:53;98360.81;;;31.12;24.19
8573;BME280;4324;42.012;24.872;2022-08-01T11:36:22;98357.75;;;31.13;25.89
8573;BME280;4324;42.012;24.872;2022-08-01T11:41:32;98352.75;;;31.06;25.08
8573;BME280;4324;42.012;24.872;2022-08-01T11:44:02;98360.03;;;31.20;26.04
8573;BME280;4324;42.012;24.872;2022-08-01T11:46:47;98361.34;;;31.22;26.14
8573;BME280;4324;42.012;24.872;2022-08-01T11:49:31;98365.06;;;31.26;24.52
8573;BME280;4324;42.012;24.872;2022-08-01T11:52:07;98353.97;;;31.31;25.49
8573;BME280;4324;42.012;24.872;2022-08-01T11:54:36;98347.09;;;31.43;25.95
8573;BME280;4324;42.012;24.872;2022-08-01T11:57:05;98345.66;;;31.45;25.52
8573;BME280;4324;42.012;24.872;2022-08-01T11:59:37;98344.84;;;31.45;26.07
8573;BME280;4324;42.012;24.872;2022-08-01T12:02:15;98317.16;;;31.46;26.22
8573;BME280;4324;42.012;24.872;2022-08-01T12:04:54;98356.31;;;31.64;25.36
8573;BME280;4324;42.012;24.872;2022-08-01T12:07:24;98335.53;;;31.72;26.07
8573;BME280;4324;42.012;24.872;2022-08-01T12:09:59;98327.16;;;31.68;25.88
8573;BME280;4324;42.012;24.872;2022-08-01T12:12:28;98327.34;;;31.63;25.06
8573;BME280;4324;42.012;24.872;2022-08-01T12:14:57;98339.72;;;31.61;25.73
8573;BME280;4324;42.012;24.872;2022-08-01T12:17:29;98357.75;;;31.62;25.34
8573;BME280;4324;42.012;24.872;2022-08-01T12:19:56;98338.25;;;31.54;24.84
8573;BME280;4324;42.012;24.872;2022-08-01T12:22:25;98342.13;;;31.62;25.03
8573;BME280;4324;42.012;24.872;2022-08-01T12:24:52;98295.09;;;31.43;25.46
8573;BME280;4324;42.012;24.872;2022-08-01T12:27:27;98318.13;;;31.76;24.92
8573;BME280;4324;42.012;24.872;2022-08-01T12:29:55;98342.13;;;31.79;25.32
8573;BME280;4324;42.012;24.872;2022-08-01T12:32:25;98320.06;;;31.85;23.75
8573;BME280;4324;42.012;24.872;2022-08-01T12:34:53;98338.75;;;31.83;23.81
8573;BME280;4324;42.012;24.872;2022-08-01T12:37:21;98313.97;;;31.79;22.48
8573;BME280;4324;42.012;24.872;2022-08-01T12:39:50;98331.53;;;31.87;23.45
8573;BME280;4324;42.012;24.872;2022-08-01T12:42:17;98319.47;;;31.88;23.91
8573;BME280;4324;42.012;24.872;2022-08-01T12:44:46;98316.69;;;31.96;24.63
8573;BME280;4324;42.012;24.872;2022-08-01T12:47:15;98317.66;;;32.09;24.38
8573;BME280;4324;42.012;24.872;2022-08-01T12:49:43;98329.09;;;32.11;24.17
8573;BME280;4324;42.012;24.872;2022-08-01T12:52:11;98316.88;;;32.00;24.70
8573;BME280;4324;42.012;24.872;2022-08-01T12:55:08;98331.22;;;31.97;24.50
8573;BME280;4324;42.012;24.872;2022-08-01T12:57:38;98326.22;;;31.90;25.18
8573;BME280;4324;42.012;24.872;2022-08-01T13:00:20;98295.44;;;31.85;25.17
8573;BME280;4324;42.012;24.872;2022-08-01T13:02:50;98319.59;;;32.00;24.81
8573;BME280;4324;42.012;24.872;2022-08-01T13:05:26;98317.84;;;32.04;24.80
8573;BME280;4324;42.012;24.872;2022-08-01T13:07:53;98315.13;;;32.04;24.98
8573;BME280;4324;42.012;24.872;2022-08-01T13:10:27;98299.63;;;31.99;25.33
8573;BME280;4324;42.012;24.872;2022-08-01T13:12:56;98305.91;;;32.00;25.20
8573;BME280;4324;42.012;24.872;2022-08-01T13:15:29;98311.88;;;32.02;24.80
8573;BME280;4324;42.012;24.872;2022-08-01T13:18:02;98305.44;;;31.98;24.91
8573;BME280;4324;42.012;24.872;2022-08-01T13:20:48;98299.78;;;32.03;24.60
8573;BME280;4324;42.012;24.872;2022-08-01T13:23:17;98307.06;;;32.08;24.70
8573;BME280;4324;42.012;24.872;2022-08-01T13:25:49;98298.50;;;32.09;24.85
8573;BME280;4324;42.012;24.872;2022-08-01T13:28:18;98301.56;;;32.16;24.74
8573;BME280;4324;42.012;24.872;2022-08-01T13:30:58;98290.56;;;32.34;23.37